sensor_id;sensor_type;location;lat;lon;timestamp;temperature;humidity
25504;DHT22;13410;52.114;5.718;2023-04-03T00:00:28;7.30;99.90
25504;DHT22;13410;52.114;5.718;2023-04-03T00:02:54;7.30;99.90
25504;DHT22;13410;52.114;5.718;2023-04-03T00:05:19;7.30;99.90
25504;DHT22;13410;52.114;5.718;2023-04-03T00:07:45;7.30;99.90
25504;DHT22;13410;52.114;5.718;2023-04-03T00:10:11;7.40;99.90
25504;DHT22;13410;52.114;5.718;2023-04-03T00:12:37;7.30;99.90
25504;DHT22;13410;52.114;5.718;2023-04-03T00:15:03;7.20;99.90
25504;DHT22;13410;52.114;5.718;2023-04-03T00:17:29;7.20;99.90
25504;DHT22;13410;52.114;5.718;2023-04-03T00:19:54;7.20;99.90
25504;DHT22;13410;52.114;5.718;2023-04-03T00:22:20;7.20;99.90
25504;DHT22;13410;52.114;5.718;2023-04-03T00:24:47;7.10;99.90
25504;DHT22;13410;52.114;5.718;2023-04-03T00:27:12;7.00;99.90
25504;DHT22;13410;52.114;5.718;2023-04-03T00:29:38;7.00;99.90
25504;DHT22;13410;52.114;5.718;2023-04-03T00:32:04;7.00;99.90
25504;DHT22;13410;52.114;5.718;2023-04-03T00:34:29;7.10;99.90
25504;DHT22;13410;52.114;5.718;2023-04-03T00:36:55;7.10;99.90
25504;DHT22;13410;52.114;5.718;2023-04-03T00:39:20;7.10;99.90
25504;DHT22;13410;52.114;5.718;2023-04-03T00:41:46;6.90;99.90
25504;DHT22;13410;52.114;5.718;2023-04-03T00:47:06;7.00;99.90
25504;DHT22;13410;52.114;5.718;2023-04-03T00:49:32;7.00;99.90
25504;DHT22;13410;52.114;5.718;2023-04-03T00:51:58;6.90;99.90
25504;DHT22;13410;52.114;5.718;2023-04-03T00:54:25;7.00;99.90
25504;DHT22;13410;52.114;5.718;2023-04-03T00:56:53;6.90;99.90
25504;DHT22;13410;52.114;5.718;2023-04-03T00:59:23;6.90;99.90
25504;DHT22;13410;52.114;5.718;2023-04-03T01:01:53;6.90;99.90
25504;DHT22;13410;52.114;5.718;2023-04-03T01:04:33;6.90;99.90
25504;DHT22;13410;52.114;5.718;2023-04-03T01:07:12;6.90;99.90
25504;DHT22;13410;52.114;5.718;2023-04-03T01:09:40;6.90;99.90
25504;DHT22;13410;52.114;5.718;2023-04-03T01:12:31;6.90;99.90
25504;DHT22;13410;52.114;5.718;2023-04-03T01:15:04;6.90;99.90
25504;DHT22;13410;52.114;5.718;2023-04-03T01:17:39;6.90;99.90
25504;DHT22;13410;52.114;5.718;2023-04-03T01:23:06;6.70;99.90
25504;DHT22;13410;52.114;5.718;2023-04-03T01:25:51;6.70;99.90
25504;DHT22;13410;52.114;5.718;2023-04-03T01:28:32;6.70;99.90
25504;DHT22;13410;52.114;5.718;2023-04-03T01:31:27;6.70;99.90
25504;DHT22;13410;52.114;5.718;2023-04-03T01:33:54;6.70;99.90
25504;DHT22;13410;52.114;5.718;2023-04-03T01:36:23;6.70;99.90
25504;DHT22;13410;52.114;5.718;2023-04-03T01:38:50;6.70;99.90
25504;DHT22;13410;52.114;5.718;2023-04-03T01:41:16;6.60;99.90
25504;DHT22;13410;52.114;5.718;2023-04-03T01:43:42;6.70;99.90
25504;DHT22;13410;52.114;5.718;2023-04-03T01:46:08;6.60;99.90
25504;DHT22;13410;52.114;5.718;2023-04-03T01:48:33;6.70;99.90
25504;DHT22;13410;52.114;5.718;2023-04-03T01:50:59;6.60;99.90
25504;DHT22;13410;52.114;5.718;2023-04-03T01:53:25;6.60;99.90
25504;DHT22;13410;52.114;5.718;2023-04-03T01:55:50;6.70;99.90
25504;DHT22;13410;52.114;5.718;2023-04-03T01:58:16;6.70;99.90
25504;DHT22;13410;52.114;5.718;2023-04-03T02:00:42;6.60;99.90
25504;DHT22;13410;52.114;5.718;2023-04-03T02:03:07;6.60;99.90
25504;DHT22;13410;52.114;5.718;2023-04-03T02:05:33;6.60;99.90
25504;DHT22;13410;52.114;5.718;2023-04-03T02:07:59;6.50;99.90
25504;DHT22;13410;52.114;5.718;2023-04-03T02:10:24;6.50;99.90
25504;DHT22;13410;52.114;5.718;2023-04-03T02:12:50;6.50;99.90
25504;DHT22;13410;52.114;5.718;2023-04-03T02:15:16;6.40;99.90
25504;DHT22;13410;52.114;5.718;2023-04-03T02:17:42;6.30;99.90
25504;DHT22;13410;52.114;5.718;2023-04-03T02:20:08;6.40;99.90
25504;DHT22;13410;52.114;5.718;2023-04-03T02:22:34;6.30;99.90
25504;DHT22;13410;52.114;5.718;2023-04-03T02:24:59;6.30;99.90
25504;DHT22;13410;52.114;5.718;2023-04-03T02:27:26;6.30;99.90
25504;DHT22;13410;52.114;5.718;2023-04-03T02:29:51;6.30;99.90
25504;DHT22;13410;52.114;5.718;2023-04-03T02:32:17;6.20;99.90
25504;DHT22;13410;52.114;5.718;2023-04-03T02:34:42;6.10;99.90
25504;DHT22;13410;52.114;5.718;2023-04-03T02:37:08;6.10;99.90
25504;DHT22;13410;52.114;5.718;2023-04-03T02:39:34;6.20;99.90
25504;DHT22;13410;52.114;5.718;2023-04-03T02:41:59;6.10;99.90
25504;DHT22;13410;52.114;5.718;2023-04-03T02:44:25;6.10;99.90
25504;DHT22;13410;52.114;5.718;2023-04-03T02:46:51;6.30;99.90
25504;DHT22;13410;52.114;5.718;2023-04-03T02:49:16;6.20;99.90
25504;DHT22;13410;52.114;5.718;2023-04-03T02:51:42;6.10;99.90
25504;DHT22;13410;52.114;5.718;2023-04-03T02:54:08;6.00;99.90
25504;DHT22;13410;52.114;5.718;2023-04-03T02:56:33;6.00;99.90
25504;DHT22;13410;52.114;5.718;2023-04-03T02:58:59;6.00;99.90
25504;DHT22;13410;52.114;5.718;2023-04-03T03:01:25;6.00;99.90
25504;DHT22;13410;52.114;5.718;2023-04-03T03:03:53;6.00;99.90
25504;DHT22;13410;52.114;5.718;2023-04-03T03:06:19;5.90;99.90
25504;DHT22;13410;52.114;5.718;2023-04-03T03:08:45;5.90;99.90
25504;DHT22;13410;52.114;5.718;2023-04-03T03:11:11;6.00;99.90
25504;DHT22;13410;52.114;5.718;2023-04-03T03:13:37;5.90;99.90
25504;DHT22;13410;52.114;5.718;2023-04-03T03:16:02;5.90;99.90
25504;DHT22;13410;52.114;5.718;2023-04-03T03:18:29;5.90;99.90
25504;DHT22;13410;52.114;5.718;2023-04-03T03:20:58;6.00;99.90
25504;DHT22;13410;52.114;5.718;2023-04-03T03:23:25;6.00;99.90
25504;DHT22;13410;52.114;5.718;2023-04-03T03:26:00;6.00;99.90
25504;DHT22;13410;52.114;5.718;2023-04-03T03:28:26;6.10;99.90
25504;DHT22;13410;52.114;5.718;2023-04-03T03:30:51;6.10;99.90
25504;DHT22;13410;52.114;5.718;2023-04-03T03:33:18;6.10;99.90
25504;DHT22;13410;52.114;5.718;2023-04-03T03:35:43;6.00;99.90
25504;DHT22;13410;52.114;5.718;2023-04-03T03:38:09;6.00;99.90
25504;DHT22;13410;52.114;5.718;2023-04-03T03:40:35;6.10;99.90
25504;DHT22;13410;52.114;5.718;2023-04-03T03:43:00;6.10;99.90
25504;DHT22;13410;52.114;5.718;2023-04-03T03:45:26;6.10;99.90
25504;DHT22;13410;52.114;5.718;2023-04-03T03:47:52;6.20;99.90
25504;DHT22;13410;52.114;5.718;2023-04-03T03:50:17;6.10;99.90
25504;DHT22;13410;52.114;5.718;2023-04-03T03:52:43;6.10;99.90
25504;DHT22;13410;52.114;5.718;2023-04-03T03:55:09;6.10;99.90
25504;DHT22;13410;52.114;5.718;2023-04-03T03:57:34;6.00;99.90
25504;DHT22;13410;52.114;5.718;2023-04-03T04:00:00;6.10;99.90
25504;DHT22;13410;52.114;5.718;2023-04-03T04:02:26;6.10;99.90
25504;DHT22;13410;52.114;5.718;2023-04-03T04:04:51;5.90;99.90
25504;DHT22;13410;52.114;5.718;2023-04-03T04:07:17;5.90;99.90
25504;DHT22;13410;52.114;5.718;2023-04-03T04:09:42;5.90;99.90
25504;DHT22;13410;52.114;5.718;2023-04-03T04:12:08;5.80;99.90
25504;DHT22;13410;52.114;5.718;2023-04-03T04:14:34;5.70;99.90
25504;DHT22;13410;52.114;5.718;2023-04-03T04:16:59;5.80;99.90
25504;DHT22;13410;52.114;5.718;2023-04-03T04:19:25;5.70;99.90
25504;DHT22;13410;52.114;5.718;2023-04-03T04:21:50;5.70;99.90
25504;DHT22;13410;52.114;5.718;2023-04-03T04:24:16;5.70;99.90
25504;DHT22;13410;52.114;5.718;2023-04-03T04:26:41;5.60;99.90
25504;DHT22;13410;52.114;5.718;2023-04-03T04:29:09;5.60;99.90
25504;DHT22;13410;52.114;5.718;2023-04-03T04:31:35;5.50;99.90
25504;DHT22;13410;52.114;5.718;2023-04-03T04:34:00;5.60;99.90
25504;DHT22;13410;52.114;5.718;2023-04-03T04:36:26;5.60;99.90
25504;DHT22;13410;52.114;5.718;2023-04-03T04:38:52;5.60;99.90
25504;DHT22;13410;52.114;5.718;2023-04-03T04:41:21;5.50;99.90
25504;DHT22;13410;52.114;5.718;2023-04-03T04:43:48;5.40;99.90
25504;DHT22;13410;52.114;5.718;2023-04-03T04:46:14;5.50;99.90
25504;DHT22;13410;52.114;5.718;2023-04-03T04:48:40;5.40;99.90
25504;DHT22;13410;52.114;5.718;2023-04-03T04:51:06;5.40;99.90
25504;DHT22;13410;52.114;5.718;2023-04-03T04:53:32;5.40;99.90
25504;DHT22;13410;52.114;5.718;2023-04-03T04:55:58;5.30;99.90
25504;DHT22;13410;52.114;5.718;2023-04-03T04:58:24;5.30;99.90
25504;DHT22;13410;52.114;5.718;2023-04-03T05:01:07;5.30;99.90
25504;DHT22;13410;52.114;5.718;2023-04-03T05:03:33;5.30;99.90
25504;DHT22;13410;52.114;5.718;2023-04-03T05:05:59;5.20;99.90
25504;DHT22;13410;52.114;5.718;2023-04-03T05:08:25;5.20;99.90
25504;DHT22;13410;52.114;5.718;2023-04-03T05:10:50;5.30;99.90
25504;DHT22;13410;52.114;5.718;2023-04-03T05:13:16;5.30;99.90
25504;DHT22;13410;52.114;5.718;2023-04-03T05:15:42;5.20;99.90
25504;DHT22;13410;52.114;5.718;2023-04-03T05:18:07;5.10;99.90
25504;DHT22;13410;52.114;5.718;2023-04-03T05:20:35;5.20;99.90
25504;DHT22;13410;52.114;5.718;2023-04-03T05:23:00;5.20;99.90
25504;DHT22;13410;52.114;5.718;2023-04-03T05:25:27;5.40;99.90
25504;DHT22;13410;52.114;5.718;2023-04-03T05:27:52;5.70;99.90
25504;DHT22;13410;52.114;5.718;2023-04-03T05:30:18;6.20;99.90
25504;DHT22;13410;52.114;5.718;2023-04-03T05:32:44;6.70;99.90
25504;DHT22;13410;52.114;5.718;2023-04-03T05:35:10;7.00;99.90
25504;DHT22;13410;52.114;5.718;2023-04-03T05:37:36;7.50;99.90
25504;DHT22;13410;52.114;5.718;2023-04-03T05:40:03;7.60;99.90
25504;DHT22;13410;52.114;5.718;2023-04-03T05:42:29;8.00;99.90
25504;DHT22;13410;52.114;5.718;2023-04-03T05:44:55;8.30;99.90
25504;DHT22;13410;52.114;5.718;2023-04-03T05:47:20;8.50;99.90
25504;DHT22;13410;52.114;5.718;2023-04-03T05:49:46;8.30;99.90
25504;DHT22;13410;52.114;5.718;2023-04-03T05:52:31;8.10;99.90
25504;DHT22;13410;52.114;5.718;2023-04-03T05:54:58;7.90;99.90
25504;DHT22;13410;52.114;5.718;2023-04-03T05:57:23;7.50;99.90
25504;DHT22;13410;52.114;5.718;2023-04-03T05:59:49;7.40;99.90
25504;DHT22;13410;52.114;5.718;2023-04-03T06:02:18;7.40;99.90
25504;DHT22;13410;52.114;5.718;2023-04-03T06:04:44;7.50;99.90
25504;DHT22;13410;52.114;5.718;2023-04-03T06:07:12;7.60;99.90
25504;DHT22;13410;52.114;5.718;2023-04-03T06:09:38;7.70;99.90
25504;DHT22;13410;52.114;5.718;2023-04-03T06:12:04;7.80;99.90
25504;DHT22;13410;52.114;5.718;2023-04-03T06:14:30;7.80;99.90
25504;DHT22;13410;52.114;5.718;2023-04-03T06:16:56;8.00;99.90
25504;DHT22;13410;52.114;5.718;2023-04-03T06:19:22;8.30;99.90
25504;DHT22;13410;52.114;5.718;2023-04-03T06:21:48;8.60;99.90
25504;DHT22;13410;52.114;5.718;2023-04-03T06:24:15;8.70;99.90
25504;DHT22;13410;52.114;5.718;2023-04-03T06:26:42;8.80;99.90
25504;DHT22;13410;52.114;5.718;2023-04-03T06:29:08;8.70;99.90
25504;DHT22;13410;52.114;5.718;2023-04-03T06:31:34;8.60;99.90
25504;DHT22;13410;52.114;5.718;2023-04-03T06:34:00;8.40;99.90
25504;DHT22;13410;52.114;5.718;2023-04-03T06:36:26;8.20;99.90
25504;DHT22;13410;52.114;5.718;2023-04-03T06:38:52;8.10;99.90
25504;DHT22;13410;52.114;5.718;2023-04-03T06:41:17;8.10;99.90
25504;DHT22;13410;52.114;5.718;2023-04-03T06:43:44;8.10;99.90
25504;DHT22;13410;52.114;5.718;2023-04-03T06:46:21;8.00;99.90
25504;DHT22;13410;52.114;5.718;2023-04-03T06:48:47;7.80;99.90
25504;DHT22;13410;52.114;5.718;2023-04-03T06:51:21;7.70;99.90
25504;DHT22;13410;52.114;5.718;2023-04-03T06:53:48;7.80;99.90
25504;DHT22;13410;52.114;5.718;2023-04-03T06:56:14;7.80;99.90
25504;DHT22;13410;52.114;5.718;2023-04-03T06:58:41;8.10;99.90
25504;DHT22;13410;52.114;5.718;2023-04-03T07:01:08;8.40;99.90
25504;DHT22;13410;52.114;5.718;2023-04-03T07:03:34;8.40;99.90
25504;DHT22;13410;52.114;5.718;2023-04-03T07:06:01;8.60;99.90
25504;DHT22;13410;52.114;5.718;2023-04-03T07:08:26;8.90;99.90
25504;DHT22;13410;52.114;5.718;2023-04-03T07:10:52;9.10;99.90
25504;DHT22;13410;52.114;5.718;2023-04-03T07:13:17;9.10;99.90
25504;DHT22;13410;52.114;5.718;2023-04-03T07:15:43;9.00;99.90
25504;DHT22;13410;52.114;5.718;2023-04-03T07:18:09;8.80;99.90
25504;DHT22;13410;52.114;5.718;2023-04-03T07:20:35;8.60;99.90
25504;DHT22;13410;52.114;5.718;2023-04-03T07:23:00;8.50;99.90
25504;DHT22;13410;52.114;5.718;2023-04-03T07:25:27;8.70;99.90
25504;DHT22;13410;52.114;5.718;2023-04-03T07:27:53;8.90;99.90
25504;DHT22;13410;52.114;5.718;2023-04-03T07:30:20;9.10;99.90
25504;DHT22;13410;52.114;5.718;2023-04-03T07:32:46;9.20;99.90
25504;DHT22;13410;52.114;5.718;2023-04-03T07:35:12;9.30;99.90
25504;DHT22;13410;52.114;5.718;2023-04-03T07:37:37;9.40;99.90
25504;DHT22;13410;52.114;5.718;2023-04-03T07:40:03;9.20;99.90
25504;DHT22;13410;52.114;5.718;2023-04-03T07:42:29;9.10;99.90
25504;DHT22;13410;52.114;5.718;2023-04-03T07:44:55;8.90;99.90
25504;DHT22;13410;52.114;5.718;2023-04-03T07:47:22;8.70;99.90
25504;DHT22;13410;52.114;5.718;2023-04-03T07:49:47;8.70;99.90
25504;DHT22;13410;52.114;5.718;2023-04-03T07:52:13;8.50;99.90
25504;DHT22;13410;52.114;5.718;2023-04-03T07:54:41;8.20;99.90
25504;DHT22;13410;52.114;5.718;2023-04-03T07:57:06;8.10;99.90
25504;DHT22;13410;52.114;5.718;2023-04-03T07:59:32;8.10;99.90
25504;DHT22;13410;52.114;5.718;2023-04-03T08:01:58;8.10;99.90
25504;DHT22;13410;52.114;5.718;2023-04-03T08:04:23;8.30;99.90
25504;DHT22;13410;52.114;5.718;2023-04-03T08:06:50;8.30;99.90
25504;DHT22;13410;52.114;5.718;2023-04-03T08:09:16;8.30;99.90
25504;DHT22;13410;52.114;5.718;2023-04-03T08:11:42;8.20;99.90
25504;DHT22;13410;52.114;5.718;2023-04-03T08:14:08;8.30;99.90
25504;DHT22;13410;52.114;5.718;2023-04-03T08:16:33;8.20;99.90
25504;DHT22;13410;52.114;5.718;2023-04-03T08:18:59;8.10;99.90
25504;DHT22;13410;52.114;5.718;2023-04-03T08:21:24;8.00;99.90
25504;DHT22;13410;52.114;5.718;2023-04-03T08:23:51;7.90;99.90
25504;DHT22;13410;52.114;5.718;2023-04-03T08:26:19;7.80;99.90
25504;DHT22;13410;52.114;5.718;2023-04-03T08:28:46;8.00;99.90
25504;DHT22;13410;52.114;5.718;2023-04-03T08:31:14;8.20;99.90
25504;DHT22;13410;52.114;5.718;2023-04-03T08:33:40;8.20;99.90
25504;DHT22;13410;52.114;5.718;2023-04-03T08:36:14;8.20;99.90
25504;DHT22;13410;52.114;5.718;2023-04-03T08:38:40;8.50;99.90
25504;DHT22;13410;52.114;5.718;2023-04-03T08:44:02;8.60;99.90
25504;DHT22;13410;52.114;5.718;2023-04-03T08:52:09;8.80;99.90
25504;DHT22;13410;52.114;5.718;2023-04-03T08:54:53;8.80;99.90
25504;DHT22;13410;52.114;5.718;2023-04-03T08:57:29;8.80;99.90
25504;DHT22;13410;52.114;5.718;2023-04-03T08:59:57;9.10;99.90
25504;DHT22;13410;52.114;5.718;2023-04-03T09:02:40;9.10;99.90
25504;DHT22;13410;52.114;5.718;2023-04-03T09:05:20;9.20;99.90
25504;DHT22;13410;52.114;5.718;2023-04-03T09:08:14;9.20;99.90
25504;DHT22;13410;52.114;5.718;2023-04-03T09:10:44;9.20;99.90
25504;DHT22;13410;52.114;5.718;2023-04-03T09:15:46;9.10;99.90
25504;DHT22;13410;52.114;5.718;2023-04-03T09:18:25;9.10;99.90
25504;DHT22;13410;52.114;5.718;2023-04-03T09:26:06;9.00;99.90
25504;DHT22;13410;52.114;5.718;2023-04-03T09:28:38;9.10;99.90
25504;DHT22;13410;52.114;5.718;2023-04-03T09:31:29;9.30;99.90
25504;DHT22;13410;52.114;5.718;2023-04-03T09:34:02;9.30;99.90
25504;DHT22;13410;52.114;5.718;2023-04-03T09:36:40;9.40;99.90
25504;DHT22;13410;52.114;5.718;2023-04-03T09:39:15;9.40;99.90
25504;DHT22;13410;52.114;5.718;2023-04-03T09:41:55;9.40;99.90
25504;DHT22;13410;52.114;5.718;2023-04-03T09:44:23;9.60;99.90
25504;DHT22;13410;52.114;5.718;2023-04-03T09:46:49;9.90;99.90
25504;DHT22;13410;52.114;5.718;2023-04-03T09:49:15;9.90;99.90
25504;DHT22;13410;52.114;5.718;2023-04-03T09:51:41;9.80;99.90
25504;DHT22;13410;52.114;5.718;2023-04-03T09:57:04;9.50;99.90
25504;DHT22;13410;52.114;5.718;2023-04-03T09:59:31;9.60;99.90
25504;DHT22;13410;52.114;5.718;2023-04-03T10:02:04;9.70;99.90
25504;DHT22;13410;52.114;5.718;2023-04-03T10:04:40;10.00;99.90
25504;DHT22;13410;52.114;5.718;2023-04-03T10:07:33;10.20;99.90
25504;DHT22;13410;52.114;5.718;2023-04-03T10:10:20;10.20;99.90
25504;DHT22;13410;52.114;5.718;2023-04-03T10:12:48;10.20;99.90
25504;DHT22;13410;52.114;5.718;2023-04-03T10:15:16;10.20;99.90
25504;DHT22;13410;52.114;5.718;2023-04-03T10:18:00;10.10;99.90
25504;DHT22;13410;52.114;5.718;2023-04-03T10:20:30;10.30;99.90
25504;DHT22;13410;52.114;5.718;2023-04-03T10:23:33;10.30;99.90
25504;DHT22;13410;52.114;5.718;2023-04-03T10:29:09;10.60;99.90
25504;DHT22;13410;52.114;5.718;2023-04-03T10:31:55;10.80;99.90
25504;DHT22;13410;52.114;5.718;2023-04-03T10:34:37;10.80;99.90
25504;DHT22;13410;52.114;5.718;2023-04-03T10:40:27;10.60;99.90
25504;DHT22;13410;52.114;5.718;2023-04-03T10:43:39;10.80;99.90
25504;DHT22;13410;52.114;5.718;2023-04-03T10:46:19;10.70;99.90
25504;DHT22;13410;52.114;5.718;2023-04-03T10:53:00;10.30;99.90
25504;DHT22;13410;52.114;5.718;2023-04-03T10:57:40;10.30;99.90
25504;DHT22;13410;52.114;5.718;2023-04-03T11:00:14;10.50;99.90
25504;DHT22;13410;52.114;5.718;2023-04-03T11:02:50;10.70;99.90
25504;DHT22;13410;52.114;5.718;2023-04-03T11:05:42;10.80;99.90
25504;DHT22;13410;52.114;5.718;2023-04-03T11:10:56;11.00;99.90
25504;DHT22;13410;52.114;5.718;2023-04-03T11:13:43;10.80;99.90
25504;DHT22;13410;52.114;5.718;2023-04-03T11:16:18;10.70;99.90
25504;DHT22;13410;52.114;5.718;2023-04-03T11:19:20;10.80;99.90
25504;DHT22;13410;52.114;5.718;2023-04-03T11:22:05;10.70;99.90
25504;DHT22;13410;52.114;5.718;2023-04-03T11:24:36;10.50;99.90
25504;DHT22;13410;52.114;5.718;2023-04-03T11:27:04;10.40;99.90
25504;DHT22;13410;52.114;5.718;2023-04-03T11:29:38;10.50;99.90
25504;DHT22;13410;52.114;5.718;2023-04-03T11:40:00;10.80;99.90
25504;DHT22;13410;52.114;5.718;2023-04-03T11:47:55;10.90;99.90
25504;DHT22;13410;52.114;5.718;2023-04-03T12:21:22;11.90;99.90
25504;DHT22;13410;52.114;5.718;2023-04-03T12:35:10;11.80;99.90
25504;DHT22;13410;52.114;5.718;2023-04-03T12:48:48;12.40;99.90
25504;DHT22;13410;52.114;5.718;2023-04-03T12:51:19;12.30;99.90
25504;DHT22;13410;52.114;5.718;2023-04-03T12:53:47;12.40;99.90
25504;DHT22;13410;52.114;5.718;2023-04-03T12:56:25;12.70;99.90
25504;DHT22;13410;52.114;5.718;2023-04-03T12:58:53;12.40;99.90
25504;DHT22;13410;52.114;5.718;2023-04-03T13:01:24;12.40;99.90
25504;DHT22;13410;52.114;5.718;2023-04-03T13:03:54;12.40;99.90
25504;DHT22;13410;52.114;5.718;2023-04-03T13:06:24;12.40;99.90
25504;DHT22;13410;52.114;5.718;2023-04-03T13:08:56;12.30;99.90
25504;DHT22;13410;52.114;5.718;2023-04-03T13:11:24;12.20;99.90
25504;DHT22;13410;52.114;5.718;2023-04-03T13:13:58;12.00;99.90
25504;DHT22;13410;52.114;5.718;2023-04-03T13:16:24;11.90;99.90
25504;DHT22;13410;52.114;5.718;2023-04-03T13:18:54;11.80;99.90
25504;DHT22;13410;52.114;5.718;2023-04-03T13:21:28;11.70;99.90
25504;DHT22;13410;52.114;5.718;2023-04-03T13:24:00;11.80;99.90
25504;DHT22;13410;52.114;5.718;2023-04-03T13:26:30;11.60;99.90
25504;DHT22;13410;52.114;5.718;2023-04-03T13:29:01;11.80;99.90
25504;DHT22;13410;52.114;5.718;2023-04-03T13:31:36;12.00;99.90
25504;DHT22;13410;52.114;5.718;2023-04-03T13:34:10;11.90;99.90
25504;DHT22;13410;52.114;5.718;2023-04-03T13:36:39;11.80;99.90
25504;DHT22;13410;52.114;5.718;2023-04-03T13:41:46;12.00;99.90
25504;DHT22;13410;52.114;5.718;2023-04-03T13:46:51;11.50;99.90
25504;DHT22;13410;52.114;5.718;2023-04-03T13:49:20;11.50;99.90
25504;DHT22;13410;52.114;5.718;2023-04-03T13:51:46;11.60;99.90
25504;DHT22;13410;52.114;5.718;2023-04-03T13:54:28;11.50;99.90
25504;DHT22;13410;52.114;5.718;2023-04-03T13:56:56;11.60;99.90
25504;DHT22;13410;52.114;5.718;2023-04-03T13:59:31;11.90;99.90
25504;DHT22;13410;52.114;5.718;2023-04-03T14:02:12;12.10;99.90
25504;DHT22;13410;52.114;5.718;2023-04-03T14:07:14;12.20;99.90
25504;DHT22;13410;52.114;5.718;2023-04-03T14:09:41;12.40;99.90
25504;DHT22;13410;52.114;5.718;2023-04-03T14:12:21;12.60;99.90
25504;DHT22;13410;52.114;5.718;2023-04-03T14:14:47;12.80;99.90
25504;DHT22;13410;52.114;5.718;2023-04-03T14:17:19;12.70;99.90
25504;DHT22;13410;52.114;5.718;2023-04-03T14:19:48;12.50;99.90
25504;DHT22;13410;52.114;5.718;2023-04-03T14:22:25;12.40;99.90
25504;DHT22;13410;52.114;5.718;2023-04-03T14:24:51;12.30;99.90
25504;DHT22;13410;52.114;5.718;2023-04-03T14:27:29;12.30;99.90
25504;DHT22;13410;52.114;5.718;2023-04-03T14:29:58;12.10;99.90
25504;DHT22;13410;52.114;5.718;2023-04-03T14:32:26;12.30;99.90
25504;DHT22;13410;52.114;5.718;2023-04-03T14:34:52;12.50;99.90
25504;DHT22;13410;52.114;5.718;2023-04-03T14:37:21;12.70;99.90
25504;DHT22;13410;52.114;5.718;2023-04-03T14:39:48;12.40;99.90
25504;DHT22;13410;52.114;5.718;2023-04-03T14:42:18;12.30;99.90
25504;DHT22;13410;52.114;5.718;2023-04-03T14:44:45;12.20;99.90
25504;DHT22;13410;52.114;5.718;2023-04-03T14:47:16;12.00;99.90
25504;DHT22;13410;52.114;5.718;2023-04-03T14:49:43;11.80;99.90
25504;DHT22;13410;52.114;5.718;2023-04-03T14:52:19;11.80;99.90
25504;DHT22;13410;52.114;5.718;2023-04-03T14:54:46;12.00;99.90
25504;DHT22;13410;52.114;5.718;2023-04-03T14:57:13;12.10;99.90
25504;DHT22;13410;52.114;5.718;2023-04-03T14:59:40;12.00;99.90
25504;DHT22;13410;52.114;5.718;2023-04-03T15:02:28;12.00;99.90
25504;DHT22;13410;52.114;5.718;2023-04-03T15:04:55;12.10;99.90
25504;DHT22;13410;52.114;5.718;2023-04-03T15:07:21;12.10;99.90
25504;DHT22;13410;52.114;5.718;2023-04-03T15:09:48;12.00;99.90
25504;DHT22;13410;52.114;5.718;2023-04-03T15:12:13;12.20;99.90
25504;DHT22;13410;52.114;5.718;2023-04-03T15:14:39;12.40;99.90
25504;DHT22;13410;52.114;5.718;2023-04-03T15:17:06;12.40;99.90
25504;DHT22;13410;52.114;5.718;2023-04-03T15:19:39;12.20;99.90
25504;DHT22;13410;52.114;5.718;2023-04-03T15:22:05;12.10;99.90
25504;DHT22;13410;52.114;5.718;2023-04-03T15:24:30;11.90;99.90
25504;DHT22;13410;52.114;5.718;2023-04-03T15:26:56;11.90;99.90
25504;DHT22;13410;52.114;5.718;2023-04-03T15:29:22;11.80;99.90
25504;DHT22;13410;52.114;5.718;2023-04-03T15:31:47;11.80;99.90
25504;DHT22;13410;52.114;5.718;2023-04-03T15:34:15;11.70;99.90
25504;DHT22;13410;52.114;5.718;2023-04-03T15:36:41;11.90;99.90
25504;DHT22;13410;52.114;5.718;2023-04-03T15:39:07;11.90;99.90
25504;DHT22;13410;52.114;5.718;2023-04-03T15:41:32;11.80;99.90
25504;DHT22;13410;52.114;5.718;2023-04-03T15:43:58;11.80;99.90
25504;DHT22;13410;52.114;5.718;2023-04-03T15:46:23;12.10;99.90
25504;DHT22;13410;52.114;5.718;2023-04-03T15:48:49;12.20;99.90
25504;DHT22;13410;52.114;5.718;2023-04-03T15:51:15;12.00;99.90
25504;DHT22;13410;52.114;5.718;2023-04-03T15:53:40;11.90;99.90
25504;DHT22;13410;52.114;5.718;2023-04-03T15:56:07;12.00;99.90
25504;DHT22;13410;52.114;5.718;2023-04-03T15:58:34;12.10;99.90
25504;DHT22;13410;52.114;5.718;2023-04-03T16:01:00;12.20;99.90
25504;DHT22;13410;52.114;5.718;2023-04-03T16:03:26;12.40;99.90
25504;DHT22;13410;52.114;5.718;2023-04-03T16:05:52;12.30;99.90
25504;DHT22;13410;52.114;5.718;2023-04-03T16:08:18;12.00;99.90
25504;DHT22;13410;52.114;5.718;2023-04-03T16:10:44;12.10;99.90
25504;DHT22;13410;52.114;5.718;2023-04-03T16:13:14;12.10;99.90
25504;DHT22;13410;52.114;5.718;2023-04-03T16:15:40;12.20;99.90
25504;DHT22;13410;52.114;5.718;2023-04-03T16:18:05;12.00;99.90
25504;DHT22;13410;52.114;5.718;2023-04-03T16:20:34;11.70;99.90
25504;DHT22;13410;52.114;5.718;2023-04-03T16:23:04;11.70;99.90
25504;DHT22;13410;52.114;5.718;2023-04-03T16:25:30;11.80;99.90
25504;DHT22;13410;52.114;5.718;2023-04-03T16:27:56;11.90;99.90
25504;DHT22;13410;52.114;5.718;2023-04-03T16:30:21;11.90;99.90
25504;DHT22;13410;52.114;5.718;2023-04-03T16:32:47;11.80;99.90
25504;DHT22;13410;52.114;5.718;2023-04-03T16:35:13;11.50;99.90
25504;DHT22;13410;52.114;5.718;2023-04-03T16:37:41;11.70;99.90
25504;DHT22;13410;52.114;5.718;2023-04-03T16:40:08;11.60;99.90
25504;DHT22;13410;52.114;5.718;2023-04-03T16:42:33;11.60;99.90
25504;DHT22;13410;52.114;5.718;2023-04-03T16:44:59;11.70;99.90
25504;DHT22;13410;52.114;5.718;2023-04-03T16:47:28;11.80;99.90
25504;DHT22;13410;52.114;5.718;2023-04-03T16:49:53;11.60;99.90
25504;DHT22;13410;52.114;5.718;2023-04-03T16:52:19;11.40;99.90
25504;DHT22;13410;52.114;5.718;2023-04-03T16:54:44;11.40;99.90
25504;DHT22;13410;52.114;5.718;2023-04-03T16:57:10;11.40;99.90
25504;DHT22;13410;52.114;5.718;2023-04-03T16:59:35;11.30;99.90
25504;DHT22;13410;52.114;5.718;2023-04-03T17:02:01;11.30;99.90
25504;DHT22;13410;52.114;5.718;2023-04-03T17:04:26;11.10;99.90
25504;DHT22;13410;52.114;5.718;2023-04-03T17:06:52;11.10;99.90
25504;DHT22;13410;52.114;5.718;2023-04-03T17:09:18;11.00;99.90
25504;DHT22;13410;52.114;5.718;2023-04-03T17:11:45;11.10;99.90
25504;DHT22;13410;52.114;5.718;2023-04-03T17:14:11;11.10;99.90
25504;DHT22;13410;52.114;5.718;2023-04-03T17:16:37;11.10;99.90
25504;DHT22;13410;52.114;5.718;2023-04-03T17:19:03;11.20;99.90
25504;DHT22;13410;52.114;5.718;2023-04-03T17:21:30;11.30;99.90
25504;DHT22;13410;52.114;5.718;2023-04-03T17:23:59;11.00;99.90
25504;DHT22;13410;52.114;5.718;2023-04-03T17:26:26;10.80;99.90
25504;DHT22;13410;52.114;5.718;2023-04-03T17:28:52;10.70;99.90
25504;DHT22;13410;52.114;5.718;2023-04-03T17:31:18;10.70;99.90
25504;DHT22;13410;52.114;5.718;2023-04-03T17:33:44;10.70;99.90
25504;DHT22;13410;52.114;5.718;2023-04-03T17:36:10;10.80;99.90
25504;DHT22;13410;52.114;5.718;2023-04-03T17:38:36;10.90;99.90
25504;DHT22;13410;52.114;5.718;2023-04-03T17:41:04;10.90;99.90
25504;DHT22;13410;52.114;5.718;2023-04-03T17:43:31;11.00;99.90